createdAt,value
2022-08-20T00:00:40.773Z,100905.91
2022-08-20T00:03:16.096Z,100900.25
2022-08-20T00:05:49.371Z,100911.28
2022-08-20T00:08:17.574Z,100903.69
2022-08-20T00:10:46.195Z,100905.03
2022-08-20T00:13:19.717Z,100906.34
2022-08-20T00:15:46.704Z,100910.38
2022-08-20T00:18:14.534Z,100914.41
2022-08-20T00:20:43.994Z,100921.56
2022-08-20T00:23:11.622Z,100914.97
2022-08-20T00:25:39.430Z,100912.63
2022-08-20T00:28:07.007Z,100897.09
2022-08-20T00:30:35.284Z,100894.75
2022-08-20T00:33:08.837Z,100892.38
2022-08-20T00:35:40.220Z,100894.25
2022-08-20T00:38:06.734Z,100899.28
2022-08-20T00:40:44.289Z,100902.75
2022-08-20T00:43:39.645Z,100913.13
2022-08-20T00:46:10.053Z,100913.13
2022-08-20T00:48:38.984Z,100912.34
2022-08-20T00:51:11.306Z,100904.53
2022-08-20T00:53:39.414Z,100904.00
2022-08-20T00:56:08.221Z,100911.13
2022-08-20T00:58:37.603Z,100913.81
2022-08-20T01:01:06.529Z,100914.13
2022-08-20T01:03:34.005Z,100928.88
2022-08-20T01:06:00.641Z,100929.97
2022-08-20T01:08:27.531Z,100921.06
2022-08-20T01:11:28.114Z,100927.63
2022-08-20T01:14:24.510Z,100934.88
2022-08-20T01:16:58.068Z,100926.16
2022-08-20T01:19:35.938Z,100934.88
2022-08-20T01:22:24.567Z,100934.09
2022-08-20T01:24:58.633Z,100937.56
2022-08-20T01:27:25.354Z,100926.81
2022-08-20T01:29:52.057Z,100934.75
2022-08-20T01:32:18.639Z,100939.44
2022-08-20T01:34:45.079Z,100935.75
2022-08-20T01:37:11.513Z,100942.91
2022-08-20T01:39:38.012Z,100938.19
2022-08-20T01:42:27.418Z,100946.91
2022-08-20T01:44:53.996Z,100956.38
2022-08-20T01:47:31.871Z,100957.75
2022-08-20T01:50:17.772Z,100945.09
2022-08-20T01:53:11.535Z,100960.16
2022-08-20T01:55:38.933Z,100953.81
2022-08-20T01:58:05.525Z,100952.25
2022-08-20T02:00:32.585Z,100948.00
2022-08-20T02:02:59.099Z,100936.19
2022-08-20T02:05:30.541Z,100927.25
2022-08-20T02:07:57.641Z,100939.09
2022-08-20T02:10:24.932Z,100937.75
2022-08-20T02:12:53.090Z,100936.94
2022-08-20T02:15:34.464Z,100938.84
2022-08-20T02:18:05.101Z,100959.38
2022-08-20T02:20:35.922Z,100943.81
2022-08-20T02:23:05.301Z,100951.78
2022-08-20T02:25:35.394Z,100950.69
2022-08-20T02:28:05.385Z,100950.47
2022-08-20T02:30:35.902Z,100947.00
2022-08-20T02:33:06.454Z,100954.91
2022-08-20T02:35:33.901Z,100956.81
2022-08-20T02:38:01.028Z,100954.69
2022-08-20T02:40:31.100Z,100950.47
2022-08-20T02:42:59.755Z,100947.56
2022-08-20T02:45:27.160Z,100946.53
2022-08-20T02:47:55.621Z,100943.09
2022-08-20T02:50:24.063Z,100946.75
2022-08-20T02:52:51.876Z,100951.78
2022-08-20T02:55:27.305Z,100956.00
2022-08-20T02:57:59.880Z,100951.56
2022-08-20T03:00:37.906Z,100950.00
2022-08-20T03:03:06.684Z,100950.22
2022-08-20T03:05:34.622Z,100960.50
2022-08-20T03:08:01.235Z,100943.63
2022-08-20T03:10:34.496Z,100945.78
2022-08-20T03:13:02.598Z,100951.56
2022-08-20T03:15:30.901Z,100951.56
2022-08-20T03:17:58.237Z,100956.00
2022-08-20T03:20:26.059Z,100955.78
2022-08-20T03:22:53.227Z,100952.34
2022-08-20T03:25:19.783Z,100957.91
2022-08-20T03:27:47.180Z,100951.88
2022-08-20T03:30:21.999Z,100946.88
2022-08-20T03:32:48.470Z,100955.78
2022-08-20T03:35:16.935Z,100964.28
2022-08-20T03:37:45.771Z,100965.06
2022-08-20T03:40:22.559Z,100959.25
2022-08-20T03:42:48.974Z,100954.88
2022-08-20T03:45:19.913Z,100954.88
2022-08-20T03:47:48.552Z,100960.13
2022-08-20T03:50:22.945Z,100974.09
2022-08-20T03:52:51.414Z,100982.00
2022-08-20T03:55:18.184Z,100974.84
2022-08-20T03:57:51.900Z,100986.22
2022-08-20T04:00:47.603Z,100980.44
2022-08-20T04:03:15.279Z,100975.72
2022-08-20T04:05:42.750Z,100979.66
2022-08-20T04:08:15.965Z,100983.88
2022-08-20T04:10:43.059Z,100984.66
2022-08-20T04:13:09.495Z,100972.28
2022-08-20T04:15:37.165Z,100978.09
2022-08-20T04:18:07.547Z,100978.09
2022-08-20T04:20:36.376Z,100969.38
2022-08-20T04:23:04.309Z,100980.97
2022-08-20T04:25:36.056Z,100980.97
2022-08-20T04:28:06.652Z,100991.81
2022-08-20T04:30:34.226Z,100982.31
2022-08-20T04:33:01.033Z,100990.25
2022-08-20T04:35:28.517Z,100993.91
2022-08-20T04:38:22.124Z,100984.22
2022-08-20T04:40:55.941Z,100989.22
2022-08-20T04:43:44.411Z,100992.09
2022-08-20T04:46:10.910Z,100990.78
2022-08-20T04:48:41.000Z,100996.59
2022-08-20T04:51:10.282Z,100997.38
2022-08-20T04:53:36.872Z,101002.38
2022-08-20T04:56:03.649Z,100990.78
2022-08-20T04:58:33.799Z,101008.19
2022-08-20T05:01:04.012Z,101008.19
2022-08-20T05:03:31.729Z,101005.06
2022-08-20T05:05:59.085Z,101014.00
2022-08-20T05:08:26.472Z,101002.38
2022-08-20T05:10:58.137Z,101007.41
2022-08-20T05:13:41.290Z,101009.50
2022-08-20T05:16:08.088Z,101007.41
2022-08-20T05:18:35.164Z,101001.06
2022-08-20T05:21:08.502Z,101002.38
2022-08-20T05:23:40.565Z,101009.75
2022-08-20T05:26:09.034Z,100995.25
2022-08-20T05:28:54.088Z,100995.81
2022-08-20T05:31:25.153Z,101008.19
2022-08-20T05:34:12.249Z,101006.63
2022-08-20T05:36:41.026Z,101008.97
2022-08-20T05:39:08.926Z,101011.31
2022-08-20T05:41:36.245Z,100999.50
2022-08-20T05:44:02.939Z,101011.31
2022-08-20T05:46:31.370Z,101006.63
2022-08-20T05:48:59.800Z,101008.41
2022-08-20T05:51:28.538Z,101010.00
2022-08-20T05:53:59.056Z,101010.53
2022-08-20T05:56:27.261Z,101016.81
2022-08-20T05:58:54.129Z,101006.63
2022-08-20T06:01:21.128Z,101013.91
2022-08-20T06:04:06.213Z,101009.44
2022-08-20T06:06:44.172Z,101010.22
2022-08-20T06:09:14.323Z,101011.78
2022-08-20T06:11:40.896Z,101010.47
2022-08-20T06:14:07.504Z,101014.91
2022-08-20T06:16:34.096Z,101016.72
2022-08-20T06:19:03.769Z,101016.16
2022-08-20T06:21:30.285Z,101013.03
2022-08-20T06:23:58.869Z,101021.44
2022-08-20T06:26:29.768Z,101017.97
2022-08-20T06:28:58.455Z,101024.31
2022-08-20T06:31:24.944Z,101022.44
2022-08-20T06:33:51.555Z,101026.34
2022-08-20T06:36:18.806Z,101039.53
2022-08-20T06:38:46.187Z,101023.69
2022-08-20T06:41:12.917Z,101034.19
2022-08-20T06:43:39.434Z,101034.44
2022-08-20T06:46:06.893Z,101029.63
2022-08-20T06:48:37.043Z,101034.66
2022-08-20T06:51:06.407Z,101042.25
2022-08-20T06:53:32.859Z,101035.69
2022-08-20T06:55:59.683Z,101035.09
2022-08-20T06:58:38.394Z,101045.59
2022-08-20T07:01:12.199Z,101052.78
2022-08-20T07:03:54.112Z,101053.75
2022-08-20T07:06:22.199Z,101051.66
2022-08-20T07:08:48.666Z,101052.66
2022-08-20T07:11:15.370Z,101056.59
2022-08-20T07:13:41.971Z,101052.38
2022-08-20T07:16:08.985Z,101053.91
2022-08-20T07:18:36.044Z,101061.28
2022-08-20T07:21:02.510Z,101052.38
2022-08-20T07:23:31.566Z,101059.72
2022-08-20T07:25:58.555Z,101061.75
2022-08-20T07:28:29.017Z,101060.63
2022-08-20T07:31:15.812Z,101062.22
2022-08-20T07:33:44.579Z,101063.78
2022-08-20T07:36:12.797Z,101070.03
2022-08-20T07:38:39.386Z,101072.94
2022-08-20T07:41:09.907Z,101082.94
2022-08-20T07:43:36.540Z,101075.81
2022-08-20T07:46:09.189Z,101079.47
2022-08-20T07:48:39.759Z,101078.16
2022-08-20T07:51:08.101Z,101072.22
2022-08-20T07:53:37.057Z,101071.13
2022-08-20T07:56:10.289Z,101071.91
2022-08-20T07:58:41.520Z,101082.41
2022-08-20T08:01:08.335Z,101077.06
2022-08-20T08:03:39.553Z,101084.44
2022-08-20T08:06:28.313Z,101071.16
2022-08-20T08:09:13.175Z,101072.72
2022-08-20T08:11:47.485Z,101079.56
2022-08-20T08:14:16.222Z,101078.41
2022-08-20T08:16:45.371Z,101075.97
2022-08-20T08:19:16.954Z,101080.91
2022-08-20T08:21:44.372Z,101076.66
2022-08-20T08:24:12.736Z,101084.50
2022-08-20T08:26:40.963Z,101082.91
2022-08-20T08:29:07.564Z,101084.97
2022-08-20T08:31:34.928Z,101088.53
2022-08-20T08:34:01.381Z,101081.94
2022-08-20T08:36:27.934Z,101097.50
2022-08-20T08:38:55.940Z,101095.25
2022-08-20T08:41:35.455Z,101085.84
2022-08-20T08:44:21.695Z,101088.09
2022-08-20T08:46:49.485Z,101086.41
2022-08-20T08:49:24.524Z,101084.28
2022-08-20T08:52:07.184Z,101086.88
2022-08-20T08:54:35.135Z,101092.25
2022-08-20T08:57:02.583Z,101096.59
2022-08-20T08:59:48.577Z,101095.25
2022-08-20T09:02:22.250Z,101101.09
2022-08-20T09:04:51.511Z,101099.53
2022-08-20T09:07:18.183Z,101104.69
2022-08-20T09:09:46.733Z,101101.97
2022-08-20T09:12:19.297Z,101098.97
2022-08-20T09:14:50.212Z,101107.81
2022-08-20T09:17:19.441Z,101106.44
2022-08-20T09:19:46.340Z,101108.03
2022-08-20T09:22:18.700Z,101115.72
2022-08-20T09:24:46.285Z,101110.94
2022-08-20T09:27:12.766Z,101106.56
2022-08-20T09:29:39.949Z,101113.63
2022-08-20T09:32:18.860Z,101108.34
2022-08-20T09:34:56.944Z,101103.66
2022-08-20T09:37:25.876Z,101109.31
2022-08-20T09:39:52.639Z,101105.75
2022-08-20T09:42:28.393Z,101112.47
2022-08-20T09:44:55.836Z,101104.88
2022-08-20T09:47:22.400Z,101099.25
2022-08-20T09:49:49.511Z,101105.75
2022-08-20T09:52:40.681Z,101102.13
2022-08-20T09:55:33.542Z,101101.81
2022-08-20T09:58:08.136Z,101102.81
2022-08-20T10:00:34.779Z,101113.09
2022-08-20T10:03:03.183Z,101116.22
2022-08-20T10:05:30.202Z,101114.69
2022-08-20T10:07:56.762Z,101106.50
2022-08-20T10:10:23.307Z,101113.66
2022-08-20T10:12:54.634Z,101121.47
2022-08-20T10:15:21.624Z,101119.94
2022-08-20T10:17:48.109Z,101112.97
2022-08-20T10:20:15.579Z,101123.03
2022-08-20T10:22:42.062Z,101121.78
2022-08-20T10:25:08.726Z,101121.56
2022-08-20T10:27:35.189Z,101121.22
2022-08-20T10:30:05.238Z,101121.56
2022-08-20T10:32:31.748Z,101111.91
2022-08-20T10:34:58.208Z,101113.47
2022-08-20T10:37:25.811Z,101116.84
2022-08-20T10:39:53.277Z,101119.75
2022-08-20T10:42:19.873Z,101114.34
2022-08-20T10:44:46.850Z,101111.88
2022-08-20T10:47:20.821Z,101111.63
2022-08-20T10:49:49.339Z,101119.03
2022-08-20T10:52:16.195Z,101119.47
2022-08-20T10:54:43.058Z,101125.94
2022-08-20T10:57:14.796Z,101126.16
2022-08-20T10:59:43.278Z,101127.72
2022-08-20T11:02:10.438Z,101126.56
2022-08-20T11:04:37.040Z,101137.66
2022-08-20T11:07:55.512Z,101130.50
2022-08-20T11:10:14.182Z,101138.69
2022-08-20T11:12:41.005Z,101129.00
2022-08-20T11:15:10.576Z,101129.44
2022-08-20T11:17:41.130Z,101130.78
2022-08-20T11:20:09.040Z,101127.31
2022-08-20T11:22:35.539Z,101135.28
2022-08-20T11:25:02.883Z,101139.03
2022-08-20T11:27:33.746Z,101134.75
2022-08-20T11:30:00.919Z,101136.56
2022-08-20T11:32:27.632Z,101127.59
2022-08-20T11:34:54.138Z,101138.03
2022-08-20T11:37:24.125Z,101141.63
2022-08-20T11:39:51.013Z,101137.00
2022-08-20T11:42:17.912Z,101136.06
2022-08-20T11:44:44.593Z,101130.44
2022-08-20T11:47:22.205Z,101122.69
2022-08-20T11:49:57.015Z,101126.81
2022-08-20T11:52:23.501Z,101131.50
2022-08-20T11:54:54.724Z,101123.75
2022-08-20T11:57:27.760Z,101131.91
2022-08-20T11:59:56.178Z,101128.63
2022-08-20T12:02:22.986Z,101126.94
2022-08-20T12:04:49.793Z,101137.25
2022-08-20T12:07:19.117Z,101129.13
2022-08-20T12:09:50.856Z,101135.16
2022-08-20T12:12:20.495Z,101133.03
2022-08-20T12:14:47.219Z,101124.00
2022-08-20T12:17:33.978Z,101130.69
2022-08-20T12:20:04.794Z,101133.44
2022-08-20T12:22:31.341Z,101133.06
2022-08-20T12:24:57.853Z,101133.28
2022-08-20T12:27:27.666Z,101129.22
2022-08-20T12:29:56.154Z,101131.56
2022-08-20T12:32:24.822Z,101128.06
2022-08-20T12:34:51.786Z,101132.13
2022-08-20T12:37:21.492Z,101133.56
2022-08-20T12:39:52.392Z,101137.41
2022-08-20T12:42:19.733Z,101133.50
2022-08-20T12:44:46.370Z,101135.84
2022-08-20T12:47:35.686Z,101133.34
2022-08-20T12:50:06.709Z,101135.88
2022-08-20T12:52:33.879Z,101132.38
2022-08-20T12:55:00.984Z,101142.50
2022-08-20T12:57:33.522Z,101141.38
2022-08-20T13:00:12.609Z,101145.22
2022-08-20T13:02:41.094Z,101146.59
2022-08-20T13:05:12.224Z,101140.75
2022-08-20T13:07:39.517Z,101141.94
2022-08-20T13:10:09.043Z,101146.31
2022-08-20T13:12:35.734Z,101140.88
2022-08-20T13:15:02.610Z,101139.97
2022-08-20T13:17:38.986Z,101142.50
2022-08-20T13:20:16.807Z,101135.69
2022-08-20T13:22:43.864Z,101145.25
2022-08-20T13:25:12.262Z,101137.31
2022-08-20T13:27:41.717Z,101140.06
2022-08-20T13:30:10.552Z,101137.59
2022-08-20T13:32:37.293Z,101126.88
2022-08-20T13:35:04.013Z,101130.19
2022-08-20T13:37:30.637Z,101128.97
2022-08-20T13:39:58.409Z,101136.75
2022-08-20T13:42:26.102Z,101127.06
2022-08-20T13:44:53.947Z,101120.47
2022-08-20T13:47:28.738Z,101115.22
2022-08-20T13:50:17.529Z,101122.03
2022-08-20T13:52:44.729Z,101108.44
2022-08-20T13:55:16.162Z,101131.38
2022-08-20T13:57:43.884Z,101123.19
2022-08-20T14:00:14.631Z,101122.44
2022-08-20T14:02:42.166Z,101132.16
2022-08-20T14:05:09.850Z,101128.25
2022-08-20T14:07:37.923Z,101122.44
2022-08-20T14:10:18.895Z,101127.13
2022-08-20T14:12:46.358Z,101121.50
2022-08-20T14:15:12.938Z,101119.16
2022-08-20T14:17:42.771Z,101119.94
2022-08-20T14:20:15.650Z,101132.75
2022-08-20T14:22:44.330Z,101132.56
2022-08-20T14:25:14.946Z,101126.88
2022-08-20T14:27:41.970Z,101119.31
2022-08-20T14:30:13.144Z,101125.97
2022-08-20T14:32:40.458Z,101132.38
2022-08-20T14:35:08.307Z,101132.16
2022-08-20T14:37:40.113Z,101131.19
2022-08-20T14:40:11.090Z,101118.59
2022-08-20T14:42:38.093Z,101114.28
2022-08-20T14:45:07.051Z,101121.72
2022-08-20T14:47:36.173Z,101123.97
2022-08-20T14:50:07.037Z,101123.97
2022-08-20T14:52:36.487Z,101122.84
2022-08-20T14:55:05.363Z,101123.25
2022-08-20T14:57:32.562Z,101134.13
2022-08-20T14:59:59.246Z,101126.31
2022-08-20T15:02:25.885Z,101124.97
2022-08-20T15:04:54.469Z,101120.91
2022-08-20T15:07:23.776Z,101131.00
2022-08-20T15:09:50.521Z,101132.00
2022-08-20T15:12:17.018Z,101130.78
2022-08-20T15:14:43.609Z,101132.38
2022-08-20T15:17:26.440Z,101136.63
2022-08-20T15:19:53.945Z,101140.69
2022-08-20T15:22:22.085Z,101125.91
2022-08-20T15:24:49.296Z,101137.63
2022-08-20T15:27:23.095Z,101139.13
2022-08-20T15:29:51.446Z,101151.34
2022-08-20T15:32:18.787Z,101154.28
2022-08-20T15:34:45.598Z,101141.94
2022-08-20T15:37:13.772Z,101148.50
2022-08-20T15:39:42.033Z,101148.28
2022-08-20T15:42:09.856Z,101154.75
2022-08-20T15:44:36.595Z,101150.31
2022-08-20T15:47:21.896Z,101151.22
2022-08-20T15:49:50.993Z,101148.47
2022-08-20T15:52:18.061Z,101149.88
2022-08-20T15:54:45.698Z,101145.19
2022-08-20T15:57:40.670Z,101151.94
2022-08-20T16:00:14.386Z,101158.63
2022-08-20T16:03:00.032Z,101161.47
2022-08-20T16:05:32.639Z,101158.97
2022-08-20T16:08:37.526Z,101161.47
2022-08-20T16:11:29.538Z,101162.25
2022-08-20T16:14:02.814Z,101158.41
2022-08-20T16:16:35.580Z,101166.56
2022-08-20T16:19:02.552Z,101166.63
2022-08-20T16:21:37.454Z,101177.31
2022-08-20T16:24:06.544Z,101174.97
2022-08-20T16:26:59.468Z,101178.38
2022-08-20T16:29:45.578Z,101183.56
2022-08-20T16:32:30.679Z,101188.25
2022-08-20T16:35:29.903Z,101189.97
2022-08-20T16:38:35.521Z,101194.09
2022-08-20T16:41:06.623Z,101195.81
2022-08-20T16:43:40.520Z,101195.13
2022-08-20T16:46:17.354Z,101202.50
2022-08-20T16:48:52.590Z,101202.56
2022-08-20T16:51:29.185Z,101207.84
2022-08-20T16:53:55.776Z,101197.16
2022-08-20T16:56:38.313Z,101205.16
2022-08-20T16:59:11.360Z,101217.00
2022-08-20T17:01:38.296Z,101210.19
2022-08-20T17:04:06.616Z,101209.66
2022-08-20T17:06:37.668Z,101217.00
2022-08-20T17:09:10.962Z,101201.84
2022-08-20T17:11:37.925Z,101206.88
2022-08-20T17:14:09.533Z,101211.38
2022-08-20T17:16:43.600Z,101208.25
2022-08-20T17:19:17.015Z,101203.06
2022-08-20T17:21:43.561Z,101198.53
2022-08-20T17:24:20.898Z,101205.34
2022-08-20T17:26:57.778Z,101198.09
2022-08-20T17:29:28.276Z,101196.88
2022-08-20T17:31:58.175Z,101195.75
2022-08-20T17:34:28.356Z,101205.63
2022-08-20T17:37:02.993Z,101200.38
2022-08-20T17:39:31.489Z,101208.50
2022-08-20T17:42:17.513Z,101208.16
2022-08-20T17:44:51.273Z,101202.69
2022-08-20T17:47:19.993Z,101210.78
2022-08-20T17:50:02.337Z,101215.06
2022-08-20T17:52:46.457Z,101215.97
2022-08-20T17:55:13.590Z,101212.69
2022-08-20T17:57:43.867Z,101224.25
2022-08-20T18:00:15.329Z,101223.22
2022-08-20T18:02:43.225Z,101228.22
2022-08-20T18:05:17.905Z,101220.03
2022-08-20T18:08:19.463Z,101227.72
2022-08-20T18:11:03.716Z,101227.84
2022-08-20T18:13:48.359Z,101234.25
2022-08-20T18:16:27.994Z,101246.28
2022-08-20T18:18:59.477Z,101238.53
2022-08-20T18:21:43.916Z,101256.94
2022-08-20T18:24:15.670Z,101257.44
2022-08-20T18:26:52.597Z,101248.91
2022-08-20T18:29:29.313Z,101258.22
2022-08-20T18:32:05.747Z,101255.38
2022-08-20T18:34:32.149Z,101250.78
2022-08-20T18:37:21.039Z,101257.72
2022-08-20T18:39:50.029Z,101256.09
2022-08-20T18:42:35.148Z,101269.31
2022-08-20T18:45:01.919Z,101257.44
2022-08-20T18:47:34.614Z,101263.19
2022-08-20T18:50:05.267Z,101265.09
2022-08-20T18:52:37.699Z,101274.03
2022-08-20T18:55:15.839Z,101276.28
2022-08-20T18:58:02.695Z,101273.16
2022-08-20T19:00:44.844Z,101279.44
2022-08-20T19:03:31.212Z,101274.19
2022-08-20T19:06:25.855Z,101282.59
2022-08-20T19:09:20.219Z,101273.88
2022-08-20T19:12:22.223Z,101292.47
2022-08-20T19:15:01.360Z,101277.25
2022-08-20T19:17:53.992Z,101279.94
2022-08-20T19:20:24.341Z,101271.75
2022-08-20T19:22:53.203Z,101276.81
2022-08-20T19:25:32.720Z,101283.75
2022-08-20T19:28:04.384Z,101293.81
2022-08-20T19:30:38.324Z,101289.13
2022-08-20T19:33:06.149Z,101285.00
2022-08-20T19:35:34.021Z,101287.91
2022-08-20T19:38:02.197Z,101286.84
2022-08-20T19:40:33.040Z,101297.47
2022-08-20T19:43:11.930Z,101285.41
2022-08-20T19:45:50.452Z,101288.09
2022-08-20T19:48:37.299Z,101291.31
2022-08-20T19:51:32.412Z,101289.09
2022-08-20T19:53:58.909Z,101286.19
2022-08-20T19:56:27.321Z,101287.28
2022-08-20T19:59:08.887Z,101288.19
2022-08-20T20:01:35.925Z,101291.66
2022-08-20T20:04:17.099Z,101292.00
2022-08-20T20:06:46.242Z,101299.34
2022-08-20T20:09:25.003Z,101287.03
2022-08-20T20:11:57.913Z,101300.03
2022-08-20T20:14:29.106Z,101294.53
2022-08-20T20:16:56.081Z,101295.66
2022-08-20T20:19:26.706Z,101292.50
2022-08-20T20:22:19.150Z,101291.84
2022-08-20T20:24:57.621Z,101293.16
2022-08-20T20:27:26.583Z,101291.38
2022-08-20T20:30:08.273Z,101290.13
2022-08-20T20:32:38.936Z,101289.13
2022-08-20T20:35:06.243Z,101288.09
2022-08-20T20:37:50.710Z,101287.63
2022-08-20T20:40:28.689Z,101290.88
2022-08-20T20:43:06.409Z,101281.19
2022-08-20T20:45:45.600Z,101285.44
2022-08-20T20:48:23.776Z,101301.06
2022-08-20T20:50:51.994Z,101294.47
2022-08-20T20:53:47.234Z,101296.13
2022-08-20T20:56:31.257Z,101291.97
2022-08-20T20:59:01.308Z,101299.69
2022-08-20T21:01:48.698Z,101297.34
2022-08-20T21:04:21.759Z,101301.34
2022-08-20T21:06:50.153Z,101293.25
2022-08-20T21:09:17.163Z,101300.63
2022-08-20T21:11:43.745Z,101295.69
2022-08-20T21:14:10.245Z,101304.19
2022-08-20T21:16:36.717Z,101305.53
2022-08-20T21:19:07.525Z,101297.69
2022-08-20T21:21:34.343Z,101300.34
2022-08-20T21:24:00.768Z,101293.28
2022-08-20T21:26:28.523Z,101294.06
2022-08-20T21:28:55.266Z,101300.50
2022-08-20T21:31:25.995Z,101288.91
2022-08-20T21:33:52.522Z,101296.56
2022-08-20T21:36:18.986Z,101296.09
2022-08-20T21:38:45.430Z,101305.13
2022-08-20T21:41:11.869Z,101304.91
2022-08-20T21:43:38.317Z,101300.19
2022-08-20T21:46:05.761Z,101295.47
2022-08-20T21:48:32.435Z,101300.22
2022-08-20T21:50:59.034Z,101305.00
2022-08-20T21:53:25.545Z,101304.53
2022-08-20T21:55:52.103Z,101299.81
2022-08-20T21:58:20.200Z,101296.69
2022-08-20T22:00:53.744Z,101293.31
2022-08-20T22:03:23.450Z,101302.31
2022-08-20T22:05:51.328Z,101295.50
2022-08-20T22:08:18.553Z,101293.69
2022-08-20T22:10:45.127Z,101287.38
2022-08-20T22:13:12.295Z,101285.34
2022-08-20T22:15:39.361Z,101292.47
2022-08-20T22:18:06.155Z,101285.66
2022-08-20T22:20:33.006Z,101283.84
2022-08-20T22:23:02.455Z,101276.75
2022-08-20T22:25:29.025Z,101278.88
2022-08-20T22:27:55.859Z,101266.78
2022-08-20T22:30:22.454Z,101264.75
2022-08-20T22:32:51.898Z,101271.63
2022-08-20T22:35:19.415Z,101267.69
2022-08-20T22:37:46.153Z,101266.13
2022-08-20T22:40:12.692Z,101273.03
2022-08-20T22:42:39.196Z,101267.28
2022-08-20T22:45:14.607Z,101266.25
2022-08-20T22:47:42.994Z,101258.41
2022-08-20T22:50:11.504Z,101268.66
2022-08-20T22:52:39.345Z,101275.53
2022-08-20T22:55:06.879Z,101275.81
2022-08-20T22:57:35.989Z,101274.00
2022-08-20T23:00:06.620Z,101273.00
2022-08-20T23:02:33.139Z,101270.38
2022-08-20T23:04:59.580Z,101274.34
2022-08-20T23:07:26.173Z,101274.09
2022-08-20T23:09:52.589Z,101263.34
2022-08-20T23:12:19.046Z,101257.06
2022-08-20T23:14:45.551Z,101254.16
2022-08-20T23:17:17.370Z,101253.16
2022-08-20T23:19:45.440Z,101257.13
2022-08-20T23:22:12.440Z,101245.84
2022-08-20T23:24:39.479Z,101245.88
2022-08-20T23:27:07.633Z,101245.88
2022-08-20T23:29:34.202Z,101240.13
2022-08-20T23:32:00.754Z,101237.78
2022-08-20T23:34:27.306Z,101230.41
2022-08-20T23:36:56.314Z,101231.47
2022-08-20T23:39:23.951Z,101233.91
2022-08-20T23:41:50.662Z,101234.97
2022-08-20T23:44:25.717Z,101225.78
2022-08-20T23:47:00.545Z,101238.44
2022-08-20T23:49:28.362Z,101248.44
2022-08-20T23:51:55.471Z,101239.50
2022-08-20T23:54:22.121Z,101239.03
2022-08-20T23:56:49.552Z,101235.63
2022-08-20T23:59:16.308Z,101241.19
